Terminal Aerodrome Forecast
Issued by NWS

Home | Current Version | Previous Version | Text Only | Print | Product List | Glossary On
Versions: 1 2 3 4 5 6 7 8 9 10 11 12 13 14
768
FTUS46 KSTO 220540
TAFRBL
TAF
KRBL 220540Z 2206/2306 17013KT P6SM -RA OVC020
     FM221100 16008KT P6SM -SHRA OVC015
      TEMPO 2211/2215 2SM BR OVC009
     FM222000 VRB04KT P6SM OVC020
     FM230100 33005KT P6SM BKN015=

USA.gov is the U.S. government's official web portal to all federal, state and local government web resources and services.